Terminal Aerodrome Forecast
Issued by NWS Chicago, IL

Home | Current Version | Previous Version | Graphics & Text | Print | Product List | Glossary On
Versions: 1 2 3 4 5 6 7 8 9 10 11 12 13 14 15 16 17 18 19 20 21 22 23 24 25 26 27 28 29 30 31 32 33 34
000
FTUS43 KLOT 261100
TAFRFD
TAF
KRFD 261136Z 2612/2712 28007KT P6SM VCTS SCT035 BKN060CB
      TEMPO 2612/2613 3SM TSRA BKN015 OVC035CB
     FM261300 36008KT P6SM VCTS SCT040CB BKN250
      TEMPO 2615/2617 3SM TSRA BKN015 OVC035CB
     FM261800 33009KT P6SM SCT040 BKN250
     FM270100 03005KT P6SM SCT070 BKN250 PROB30 2710/2712 5SM TSRA
      BKN040CB=

USA.gov is the U.S. government's official web portal to all federal, state and local government web resources and services.